Skip Navigation

Christman Field Latest Observations

Switch to metric unitsOther observation timesWeekly graphs

Date Time
MST
Temp
°F
RH
%
DewPt
°F
Wind
mph
Dir
°
Gust
mph
Dir
°
Press
in Hg
Solar
W/m^2
Prec
in
2017-06-28 01:45 59.3 50.2 40.8 0.0 292 0.0 292 24.791 0.0 0.00
2017-06-28 01:40 59.2 48.9 40.0 0.0 292 0.0 292 24.792 0.0 0.00
2017-06-28 01:35 58.4 48.6 39.1 0.0 292 0.0 293 24.792 0.1 0.00
2017-06-28 01:30 59.0 47.7 39.2 0.1 293 1.4 280 24.789 0.1 0.00
2017-06-28 01:25 59.2 46.3 38.6 1.8 280 4.2 327 24.788 0.1 0.00
2017-06-28 01:20 60.7 44.9 39.2 2.5 227 3.8 203 24.785 0.1 0.00
2017-06-28 01:15 60.0 45.0 38.6 2.0 248 3.6 227 24.784 0.0 0.00
2017-06-28 01:10 59.8 45.7 38.8 5.3 283 6.6 294 24.784 0.1 0.00
2017-06-28 01:05 61.3 43.0 38.6 4.5 297 7.5 313 24.783 0.1 0.00
2017-06-28 01:00 61.2 41.8 37.8 3.0 272 4.5 279 24.784 0.1 0.00
2017-06-28 00:55 62.3 42.5 39.3 3.3 269 6.2 345 24.785 0.1 0.00
2017-06-28 00:50 64.5 37.7 38.1 4.7 345 5.7 351 24.786 0.1 0.00
2017-06-28 00:45 63.8 37.2 37.2 3.1 1 5.5 335 24.787 0.1 0.00
2017-06-28 00:40 62.8 39.1 37.5 1.8 53 3.7 72 24.786 0.1 0.00
2017-06-28 00:35 62.7 40.1 38.1 3.9 155 5.7 155 24.785 0.1 0.00
2017-06-28 00:30 62.4 40.3 38.0 5.1 146 6.2 154 24.782 0.1 0.00
2017-06-28 00:25 62.6 40.6 38.3 1.8 139 4.6 126 24.777 0.1 0.00
2017-06-28 00:20 62.7 40.0 38.1 5.6 8 11.6 300 24.774 0.1 0.00
2017-06-28 00:15 62.4 40.3 38.0 6.9 341 8.9 323 24.773 0.1 0.00
2017-06-28 00:10 61.8 40.8 37.7 8.2 314 9.4 300 24.774 0.0 0.00
2017-06-28 00:05 62.6 40.7 38.4 9.5 303 11.4 291 24.770 0.1 0.00
2017-06-28 00:00 63.7 39.0 38.3 11.2 294 14.2 300 24.766 0.1 0.00
2017-06-27 23:55 63.9 37.8 37.6 12.2 307 14.6 318 24.763 0.1 0.00
2017-06-27 23:50 63.9 38.1 37.8 9.3 318 12.2 327 24.765 0.1 0.00
2017-06-27 23:45 64.5 37.8 38.2 10.6 317 15.8 329 24.765 0.1 0.00
2017-06-27 23:40 64.8 36.5 37.6 12.6 332 14.6 320 24.763 0.0 0.00
2017-06-27 23:35 64.2 35.9 36.7 12.7 332 16.3 332 24.760 0.0 0.00
2017-06-27 23:30 64.9 36.2 37.5 12.3 338 15.8 343 24.759 0.0 0.00
2017-06-27 23:25 65.4 34.0 36.3 13.7 346 15.8 339 24.759 0.0 0.00
2017-06-27 23:20 64.5 33.9 35.5 13.6 351 17.1 352 24.759 0.0 0.00